Time;durP1;ratioP1;P1;durP2;ratioP2;P2;SDS_P1;SDS_P2;PMS_P1;PMS_P2;Temp;Humidity;BMP_temperature;BMP_pressure;BME280_temperature;BME280_humidity;BME280_pressure;Samples;Min_cycle;Max_cycle;Signal;HPM_P1;HPM_P2
2021/10/11 00:00:43;;;;;;;25.83;12.43;;;14.70;99.90;;;;;;5052904;28;20301;-79
2021/10/11 00:03:08;;;;;;;16.33;10.55;;;14.80;99.90;;;;;;5052686;28;20174;-78
2021/10/11 00:05:34;;;;;;;24.77;10.98;;;14.80;99.90;;;;;;5052877;28;20206;-76
2021/10/11 00:08:00;;;;;;;21.60;10.50;;;14.70;99.90;;;;;;5052657;28;20183;-79
2021/10/11 00:10:25;;;;;;;19.10;10.45;;;14.60;99.90;;;;;;5052931;28;20170;-79
2021/10/11 00:12:53;;;;;;;15.90;10.15;;;14.60;99.90;;;;;;5052852;28;20159;-76
2021/10/11 00:15:20;;;;;;;14.75;9.13;;;14.70;99.90;;;;;;5052973;28;20175;-77
2021/10/11 00:17:47;;;;;;;13.77;8.18;;;14.60;99.90;;;;;;5052803;28;20674;-76
2021/10/11 00:20:14;;;;;;;18.77;8.90;;;14.50;99.90;;;;;;5053457;28;20178;-76
2021/10/11 00:22:41;;;;;;;15.57;8.10;;;14.50;99.90;;;;;;5052525;28;20163;-77
2021/10/11 00:25:07;;;;;;;20.70;8.75;;;14.50;99.90;;;;;;5052645;28;20248;-77
2021/10/11 00:27:33;;;;;;;14.98;8.05;;;14.50;99.90;;;;;;5052272;28;20221;-77
2021/10/11 00:30:00;;;;;;;12.98;8.25;;;14.40;99.90;;;;;;5052536;28;20236;-77
2021/10/11 00:32:26;;;;;;;14.80;8.52;;;14.30;99.90;;;;;;5052731;28;20240;-77
2021/10/11 00:34:52;;;;;;;9.68;7.35;;;14.40;99.90;;;;;;5052691;28;20167;-77
2021/10/11 00:37:18;;;;;;;16.30;8.07;;;14.40;99.90;;;;;;5052835;28;20190;-77
2021/10/11 00:39:44;;;;;;;18.83;7.78;;;14.40;99.90;;;;;;5054991;28;20217;-77
2021/10/11 00:42:10;;;;;;;13.25;6.85;;;14.50;99.90;;;;;;5055369;28;20178;-76
2021/10/11 00:44:36;;;;;;;15.40;7.05;;;14.50;99.90;;;;;;5056454;28;20210;-77
2021/10/11 00:47:03;;;;;;;14.30;6.32;;;14.50;99.90;;;;;;5056542;28;20525;-77
2021/10/11 00:49:29;;;;;;;13.75;5.80;;;14.40;99.90;;;;;;5057653;28;20171;-76
2021/10/11 00:51:56;;;;;;;14.60;5.40;;;14.30;99.90;;;;;;5055867;28;20220;-77
2021/10/11 00:54:26;;;;;;;15.15;6.22;;;14.10;99.90;;;;;;5056482;28;20170;-77
2021/10/11 00:56:52;;;;;;;17.88;4.57;;;14.10;99.90;;;;;;5055352;28;20186;-77
2021/10/11 00:59:17;;;;;;;12.98;4.75;;;14.10;99.90;;;;;;5056879;28;20651;-77
2021/10/11 01:01:43;;;;;;;11.38;4.25;;;14.10;99.90;;;;;;5056526;28;20171;-77
2021/10/11 01:04:09;;;;;;;9.77;4.70;;;14.00;99.90;;;;;;5056280;28;20163;-77
2021/10/11 01:06:39;;;;;;;11.40;4.32;;;13.90;99.90;;;;;;5055413;28;20203;-77
2021/10/11 01:09:06;;;;;;;9.68;4.07;;;13.90;99.90;;;;;;5056279;28;20174;-77
2021/10/11 01:11:32;;;;;;;7.30;3.95;;;13.90;99.90;;;;;;5055442;28;20313;-77
2021/10/11 01:13:58;;;;;;;9.80;3.92;;;13.70;99.90;;;;;;5056598;28;20186;-77
2021/10/11 01:16:24;;;;;;;15.63;4.40;;;13.60;99.90;;;;;;5056604;28;20175;-77
2021/10/11 01:18:50;;;;;;;12.32;3.33;;;13.60;99.90;;;;;;5057408;28;20193;-77
2021/10/11 01:21:16;;;;;;;11.45;3.95;;;13.50;99.90;;;;;;5057493;28;20178;-77
2021/10/11 01:23:42;;;;;;;9.30;4.32;;;13.50;99.90;;;;;;5057157;28;20159;-77
2021/10/11 01:26:07;;;;;;;5.65;3.03;;;13.60;99.90;;;;;;5056398;28;20214;-77
2021/10/11 01:28:33;;;;;;;8.85;3.05;;;13.50;99.90;;;;;;5056975;28;20266;-77
2021/10/11 01:30:59;;;;;;;13.55;3.95;;;13.60;99.90;;;;;;5057591;28;20186;-77
2021/10/11 01:33:25;;;;;;;7.90;3.13;;;13.60;99.90;;;;;;5056368;28;20175;-77
2021/10/11 01:35:50;;;;;;;8.18;2.90;;;13.40;99.90;;;;;;5056584;28;20183;-77
2021/10/11 01:38:16;;;;;;;6.35;2.88;;;13.50;99.90;;;;;;5055934;28;20200;-78
2021/10/11 01:40:42;;;;;;;4.90;2.65;;;13.40;99.90;;;;;;5056495;28;20204;-77
2021/10/11 01:43:09;;;;;;;7.50;3.25;;;13.50;99.90;;;;;;5056232;28;20297;-77
2021/10/11 01:45:36;;;;;;;6.55;2.58;;;13.40;99.90;;;;;;5055936;28;20217;-77
2021/10/11 01:48:03;;;;;;;4.20;2.05;;;13.40;99.90;;;;;;5055438;28;20567;-77
2021/10/11 01:50:29;;;;;;;9.50;2.00;;;13.30;99.90;;;;;;5054694;28;20531;-77
2021/10/11 01:52:55;;;;;;;5.60;3.28;;;13.30;99.90;;;;;;5055516;28;20159;-77
2021/10/11 01:55:21;;;;;;;5.30;2.90;;;13.20;99.90;;;;;;5055582;28;20654;-77
2021/10/11 01:57:46;;;;;;;9.55;2.88;;;13.20;99.90;;;;;;5055691;28;20232;-77
2021/10/11 02:00:12;;;;;;;9.50;3.53;;;13.30;99.90;;;;;;5054285;28;20526;-77
2021/10/11 02:02:38;;;;;;;11.13;2.42;;;13.30;99.90;;;;;;5055117;28;20197;-77
2021/10/11 02:05:05;;;;;;;8.30;2.95;;;13.20;99.90;;;;;;5055162;28;20297;-77
2021/10/11 02:07:30;;;;;;;3.63;2.50;;;13.20;99.90;;;;;;5055481;28;20278;-78
2021/10/11 02:09:56;;;;;;;6.50;2.35;;;13.30;99.90;;;;;;5055836;28;20163;-77
2021/10/11 02:12:22;;;;;;;10.05;3.15;;;13.20;99.90;;;;;;5055145;28;20168;-77
2021/10/11 02:14:48;;;;;;;9.00;2.15;;;13.20;99.90;;;;;;5054093;28;20163;-77
2021/10/11 02:17:15;;;;;;;8.10;2.25;;;13.10;99.90;;;;;;5055668;28;20669;-77
2021/10/11 02:19:42;;;;;;;9.00;2.05;;;13.10;99.90;;;;;;5055608;28;20653;-77
2021/10/11 02:22:08;;;;;;;7.88;2.47;;;13.10;99.90;;;;;;5055237;28;20576;-77
2021/10/11 02:24:33;;;;;;;6.00;2.05;;;13.10;99.90;;;;;;5053977;28;20654;-77
2021/10/11 02:26:59;;;;;;;8.35;2.95;;;13.10;99.90;;;;;;5054391;28;20226;-77
2021/10/11 02:29:27;;;;;;;6.85;2.33;;;13.00;99.90;;;;;;5055342;28;20262;-77
2021/10/11 02:31:53;;;;;;;3.35;1.92;;;13.00;99.90;;;;;;5055625;28;20194;-77
2021/10/11 02:34:19;;;;;;;8.52;1.90;;;12.90;99.90;;;;;;5056021;28;20612;-77
2021/10/11 02:36:44;;;;;;;11.90;1.90;;;13.00;99.90;;;;;;5054546;28;20195;-77
2021/10/11 02:39:10;;;;;;;4.65;2.05;;;13.10;99.90;;;;;;5054694;28;20155;-78
2021/10/11 02:41:36;;;;;;;6.60;2.20;;;13.00;99.90;;;;;;5054634;28;20241;-78
2021/10/11 02:44:01;;;;;;;14.05;2.10;;;12.90;99.90;;;;;;5054214;28;20185;-78
2021/10/11 02:46:27;;;;;;;9.00;2.03;;;13.00;99.90;;;;;;5054028;28;20211;-81
2021/10/11 02:48:53;;;;;;;6.50;1.95;;;13.00;99.90;;;;;;5054991;28;20198;-79
2021/10/11 02:51:18;;;;;;;6.75;1.98;;;13.20;99.90;;;;;;5055141;28;20529;-78
2021/10/11 02:53:49;;;;;;;8.77;2.03;;;13.20;99.90;;;;;;5054544;28;20171;-78
2021/10/11 02:56:16;;;;;;;15.15;1.85;;;13.20;99.90;;;;;;5054286;28;20164;-78
2021/10/11 02:58:41;;;;;;;11.38;1.90;;;13.20;99.90;;;;;;5054264;28;20179;-78
2021/10/11 03:01:07;;;;;;;5.07;2.05;;;13.20;99.90;;;;;;5053604;28;20178;-79
2021/10/11 03:03:32;;;;;;;4.18;1.63;;;13.30;99.90;;;;;;5053851;28;20641;-78
2021/10/11 03:05:58;;;;;;;10.15;2.15;;;13.30;99.90;;;;;;5053705;28;20293;-78
2021/10/11 03:08:24;;;;;;;9.35;2.17;;;13.30;99.90;;;;;;5053878;28;20222;-79
2021/10/11 03:10:49;;;;;;;10.98;2.03;;;13.30;99.90;;;;;;5054740;28;20167;-78
2021/10/11 03:13:15;;;;;;;9.77;1.75;;;13.50;99.90;;;;;;5054057;28;20178;-79
2021/10/11 03:15:40;;;;;;;3.63;1.75;;;13.50;99.90;;;;;;5054748;28;20167;-79
2021/10/11 03:18:06;;;;;;;2.35;1.75;;;13.40;99.90;;;;;;5054016;28;20198;-85
2021/10/11 03:20:32;;;;;;;4.53;1.50;;;13.30;99.90;;;;;;5053940;28;20167;-79
2021/10/11 03:22:57;;;;;;;7.07;2.00;;;13.30;99.90;;;;;;5053565;28;20175;-79
2021/10/11 03:25:23;;;;;;;5.43;1.63;;;13.30;99.90;;;;;;5053928;28;20202;-80
2021/10/11 03:27:48;;;;;;;5.40;1.55;;;13.20;99.90;;;;;;5053766;28;20195;-80
2021/10/11 03:30:14;;;;;;;8.48;2.13;;;13.30;99.90;;;;;;5054058;28;20629;-79
2021/10/11 03:32:40;;;;;;;8.55;1.88;;;13.30;99.90;;;;;;5053927;28;20170;-80
2021/10/11 03:35:06;;;;;;;5.35;2.33;;;13.20;99.90;;;;;;5054068;28;20163;-79
2021/10/11 03:37:31;;;;;;;5.40;1.70;;;13.30;99.90;;;;;;5053446;28;20187;-79
2021/10/11 03:39:57;;;;;;;13.43;2.00;;;13.30;99.90;;;;;;5053188;28;20163;-79
2021/10/11 03:42:23;;;;;;;8.82;2.25;;;13.20;99.90;;;;;;5052874;28;20697;-78
2021/10/11 03:44:48;;;;;;;15.60;2.20;;;13.10;99.90;;;;;;5052811;28;20248;-80
2021/10/11 03:47:14;;;;;;;8.63;3.08;;;13.10;99.90;;;;;;5052491;28;20550;-79
2021/10/11 03:49:40;;;;;;;7.25;2.40;;;13.20;99.90;;;;;;5052694;28;20508;-79
2021/10/11 03:52:05;;;;;;;8.48;3.03;;;13.10;99.90;;;;;;5052872;28;20175;-78
2021/10/11 03:54:31;;;;;;;8.77;3.05;;;13.20;99.90;;;;;;5052728;28;20225;-79
2021/10/11 03:56:57;;;;;;;4.10;1.90;;;13.10;99.90;;;;;;5051294;28;20195;-79
2021/10/11 03:59:22;;;;;;;9.57;3.03;;;13.10;99.90;;;;;;5052197;28;20640;-79
2021/10/11 04:01:48;;;;;;;8.23;1.70;;;12.90;99.90;;;;;;5052401;28;20229;-79
2021/10/11 04:04:13;;;;;;;7.63;1.90;;;12.90;99.90;;;;;;5052319;28;20250;-78
2021/10/11 04:06:39;;;;;;;9.60;2.58;;;13.00;99.90;;;;;;5050951;28;20647;-79
2021/10/11 04:09:05;;;;;;;4.38;1.75;;;13.00;99.90;;;;;;5052557;28;20169;-79
2021/10/11 04:11:32;;;;;;;11.15;2.30;;;13.00;99.90;;;;;;5051486;28;20159;-79
2021/10/11 04:13:58;;;;;;;11.30;2.33;;;13.10;99.90;;;;;;5052635;28;20167;-79
2021/10/11 04:16:24;;;;;;;6.88;1.73;;;13.30;99.90;;;;;;5052717;28;20277;-79
2021/10/11 04:18:49;;;;;;;6.15;1.95;;;13.40;99.90;;;;;;5051430;28;20240;-79
2021/10/11 04:21:15;;;;;;;11.30;2.35;;;13.20;99.90;;;;;;5052488;28;20174;-79
2021/10/11 04:23:40;;;;;;;8.77;2.05;;;13.20;99.90;;;;;;5052671;28;20177;-79
2021/10/11 04:26:06;;;;;;;10.38;1.80;;;13.20;99.90;;;;;;5052130;28;20205;-79
2021/10/11 04:28:32;;;;;;;6.10;1.83;;;13.20;99.90;;;;;;5052618;28;20643;-79
2021/10/11 04:31:00;;;;;;;4.22;2.58;;;13.30;99.90;;;;;;5053122;28;20198;-79
2021/10/11 04:33:26;;;;;;;10.10;2.38;;;13.30;99.90;;;;;;5055250;28;20167;-79
2021/10/11 04:35:52;;;;;;;6.15;2.20;;;13.40;99.90;;;;;;5058685;28;20261;-79
2021/10/11 04:38:18;;;;;;;9.55;2.47;;;13.40;99.90;;;;;;5058420;28;20191;-77
2021/10/11 04:40:44;;;;;;;4.07;1.83;;;13.40;99.90;;;;;;5056440;28;20549;-79
2021/10/11 04:43:10;;;;;;;6.50;2.05;;;13.30;99.90;;;;;;5057200;28;20206;-78
2021/10/11 04:45:37;;;;;;;11.07;2.10;;;13.30;99.90;;;;;;5056879;28;20910;-79
2021/10/11 04:48:09;;;;;;;8.70;2.00;;;13.40;99.90;;;;;;5060339;28;20194;-78
2021/10/11 04:50:35;;;;;;;6.55;2.28;;;13.40;99.90;;;;;;5057953;28;20167;-78
2021/10/11 04:53:01;;;;;;;3.05;1.85;;;13.30;99.90;;;;;;5056021;28;20172;-78
2021/10/11 04:55:28;;;;;;;13.50;1.75;;;13.10;99.90;;;;;;5053389;28;20920;-78
2021/10/11 04:57:56;;;;;;;8.18;2.95;;;13.00;99.90;;;;;;5035456;28;20194;-78
2021/10/11 05:00:22;;;;;;;4.38;2.15;;;13.10;99.90;;;;;;5053323;28;20178;-78
2021/10/11 05:02:47;;;;;;;3.80;2.10;;;13.00;99.90;;;;;;5052654;28;20245;-79
2021/10/11 05:05:13;;;;;;;5.68;1.80;;;13.10;99.90;;;;;;5052208;28;20657;-79
2021/10/11 05:07:39;;;;;;;10.80;2.20;;;13.20;99.90;;;;;;5053581;28;20585;-78
2021/10/11 05:10:05;;;;;;;10.05;2.22;;;13.30;99.90;;;;;;5052883;28;20190;-78
2021/10/11 05:12:30;;;;;;;7.93;2.08;;;13.40;99.90;;;;;;5053040;28;20177;-79
2021/10/11 05:14:56;;;;;;;20.65;2.92;;;13.40;99.90;;;;;;5052891;28;20672;-78
2021/10/11 05:17:22;;;;;;;5.93;2.60;;;13.40;99.90;;;;;;5051950;28;20275;-79
2021/10/11 05:19:48;;;;;;;7.22;2.08;;;13.30;99.90;;;;;;5052522;28;20185;-79
2021/10/11 05:22:14;;;;;;;18.25;2.15;;;13.20;99.90;;;;;;5051132;28;20669;-79
2021/10/11 05:24:41;;;;;;;3.80;1.80;;;13.10;99.90;;;;;;5055056;28;20207;-79
2021/10/11 05:27:07;;;;;;;6.25;2.03;;;13.00;99.90;;;;;;5055665;28;20233;-79
2021/10/11 05:29:32;;;;;;;9.85;2.13;;;12.90;99.90;;;;;;5056356;28;20187;-80
2021/10/11 05:31:58;;;;;;;5.22;1.95;;;12.90;99.90;;;;;;5055623;28;20155;-78
2021/10/11 05:34:25;;;;;;;8.88;2.38;;;12.90;99.90;;;;;;5056043;28;20163;-78
2021/10/11 05:36:51;;;;;;;12.32;2.30;;;12.90;99.90;;;;;;5054400;28;20183;-80
2021/10/11 05:39:17;;;;;;;7.60;2.47;;;13.00;99.90;;;;;;5055986;28;20627;-79
2021/10/11 05:41:43;;;;;;;11.93;2.30;;;13.00;99.90;;;;;;5055422;28;20220;-80
2021/10/11 05:44:08;;;;;;;4.65;1.75;;;13.00;99.90;;;;;;5055155;28;20658;-77
2021/10/11 05:46:34;;;;;;;8.15;2.60;;;13.00;99.90;;;;;;5055043;28;20667;-79
2021/10/11 05:49:01;;;;;;;16.85;2.60;;;13.00;99.90;;;;;;5055367;28;20171;-78
2021/10/11 05:51:27;;;;;;;8.55;2.20;;;13.00;99.90;;;;;;5055318;28;20217;-78
2021/10/11 05:53:53;;;;;;;5.88;2.28;;;12.90;99.90;;;;;;5055181;28;20631;-82
2021/10/11 05:56:18;;;;;;;6.68;1.95;;;12.80;99.90;;;;;;5054746;28;20172;-78
2021/10/11 05:58:44;;;;;;;10.77;2.47;;;12.80;99.90;;;;;;5054730;28;20186;-78
2021/10/11 06:01:10;;;;;;;3.50;2.28;;;12.90;99.90;;;;;;5055765;28;20174;-83
2021/10/11 06:03:36;;;;;;;5.80;2.38;;;12.90;99.90;;;;;;5055199;28;20159;-78
2021/10/11 06:06:02;;;;;;;5.82;2.70;;;12.90;99.90;;;;;;5054853;28;20671;-77
2021/10/11 06:08:28;;;;;;;5.75;2.40;;;12.80;99.90;;;;;;5055505;28;20222;-77
2021/10/11 06:10:54;;;;;;;13.63;2.58;;;12.90;99.90;;;;;;5055972;28;20173;-78
2021/10/11 06:13:23;;;;;;;6.32;2.05;;;13.00;99.90;;;;;;5054808;28;20665;-80
2021/10/11 06:15:50;;;;;;;11.32;2.63;;;12.90;99.90;;;;;;5055080;28;20213;-81
2021/10/11 06:18:15;;;;;;;12.32;3.03;;;13.00;99.90;;;;;;5055785;28;20234;-78
2021/10/11 06:20:41;;;;;;;5.25;2.50;;;12.80;99.90;;;;;;5054097;28;20636;-79
2021/10/11 06:23:07;;;;;;;6.85;3.83;;;12.80;99.90;;;;;;5054608;28;20163;-79
2021/10/11 06:25:33;;;;;;;16.08;5.40;;;12.70;99.90;;;;;;5054767;28;20194;-79
2021/10/11 06:27:58;;;;;;;12.73;4.30;;;12.60;99.90;;;;;;5055126;28;20187;-78
2021/10/11 06:30:24;;;;;;;16.08;4.75;;;12.50;99.90;;;;;;5054798;28;20183;-78
2021/10/11 06:32:50;;;;;;;13.88;5.18;;;12.30;99.90;;;;;;5054284;28;20635;-78
2021/10/11 06:35:15;;;;;;;13.48;4.43;;;12.40;99.90;;;;;;5053273;28;20171;-78
2021/10/11 06:37:41;;;;;;;12.00;5.40;;;12.40;99.90;;;;;;5054030;28;20233;-78
2021/10/11 06:40:07;;;;;;;12.35;5.28;;;12.50;99.90;;;;;;5053618;28;20286;-77
2021/10/11 06:42:33;;;;;;;9.50;5.68;;;12.40;99.90;;;;;;5052245;28;20162;-91
2021/10/11 06:44:59;;;;;;;11.95;5.40;;;12.50;99.90;;;;;;5053736;28;20206;-77
2021/10/11 06:47:24;;;;;;;13.10;5.70;;;12.60;99.90;;;;;;5053491;28;20198;-77
2021/10/11 06:49:50;;;;;;;6.53;4.63;;;12.50;99.90;;;;;;5053387;28;20167;-77
2021/10/11 06:52:16;;;;;;;12.95;4.78;;;12.50;99.90;;;;;;5052314;28;20271;-77
2021/10/11 06:54:42;;;;;;;11.98;5.18;;;12.60;99.90;;;;;;5054100;28;20178;-76
2021/10/11 06:57:08;;;;;;;8.40;4.53;;;12.60;99.90;;;;;;5054034;28;20191;-79
2021/10/11 06:59:35;;;;;;;18.02;5.68;;;12.70;99.90;;;;;;5053447;28;20631;-77
2021/10/11 07:02:01;;;;;;;6.05;4.68;;;12.90;99.90;;;;;;5053166;28;20174;-77
2021/10/11 07:04:27;;;;;;;8.73;5.20;;;13.00;99.90;;;;;;5053066;28;20207;-77
2021/10/11 07:06:53;;;;;;;15.35;5.85;;;13.10;99.90;;;;;;5053348;28;20191;-77
2021/10/11 07:09:19;;;;;;;11.05;5.30;;;13.20;99.90;;;;;;5053419;28;20229;-77
2021/10/11 07:11:48;;;;;;;8.70;5.13;;;13.10;99.90;;;;;;5053309;28;20155;-77
2021/10/11 07:14:14;;;;;;;13.10;4.65;;;13.20;99.90;;;;;;5053553;28;20163;-77
2021/10/11 07:16:39;;;;;;;8.88;4.00;;;13.30;99.90;;;;;;5054553;28;20269;-77
2021/10/11 07:19:05;;;;;;;14.13;3.97;;;13.20;99.90;;;;;;5057133;28;20182;-77
2021/10/11 07:21:32;;;;;;;8.85;4.25;;;13.40;99.90;;;;;;5053603;28;20171;-81
2021/10/11 07:23:58;;;;;;;8.13;4.68;;;13.70;99.90;;;;;;5054159;28;20193;-78
2021/10/11 07:26:23;;;;;;;12.25;4.45;;;13.90;99.90;;;;;;5052958;28;20211;-78
2021/10/11 07:28:49;;;;;;;9.02;3.83;;;14.00;99.90;;;;;;5052617;28;20212;-83
2021/10/11 07:31:14;;;;;;;9.40;3.65;;;14.00;99.90;;;;;;5052795;28;20651;-81
2021/10/11 07:33:40;;;;;;;20.05;4.47;;;14.10;99.90;;;;;;5052669;28;20171;-78
2021/10/11 07:36:06;;;;;;;6.78;4.05;;;14.00;99.90;;;;;;5054281;28;20220;-82
2021/10/11 07:38:38;;;;;;;8.13;4.22;;;14.00;99.90;;;;;;5053988;28;20281;-79
2021/10/11 07:41:03;;;;;;;7.00;3.33;;;14.00;99.90;;;;;;5053304;28;20199;-78
2021/10/11 07:43:29;;;;;;;5.38;3.97;;;14.10;99.90;;;;;;5053239;28;20167;-78
2021/10/11 07:46:01;;;;;;;11.43;3.35;;;14.20;99.90;;;;;;5054148;28;20205;-89
2021/10/11 07:48:27;;;;;;;5.18;3.28;;;14.00;99.90;;;;;;5053739;28;20665;-82
2021/10/11 07:50:53;;;;;;;6.57;3.83;;;14.00;99.90;;;;;;5053065;28;20188;-78
2021/10/11 07:53:19;;;;;;;17.85;5.05;;;14.10;99.90;;;;;;5053698;28;20183;-78
2021/10/11 07:55:45;;;;;;;8.50;4.63;;;14.20;99.90;;;;;;5052693;28;20516;-79
2021/10/11 07:58:10;;;;;;;7.88;5.78;;;14.20;99.90;;;;;;5051615;28;20203;-78
2021/10/11 08:00:36;;;;;;;9.73;4.88;;;14.20;99.90;;;;;;5052466;28;20236;-79
2021/10/11 08:03:02;;;;;;;16.80;4.13;;;14.30;99.90;;;;;;5051423;28;20179;-83
2021/10/11 08:05:28;;;;;;;6.95;4.05;;;14.30;99.90;;;;;;5052562;28;20215;-81
2021/10/11 08:07:53;;;;;;;6.47;3.75;;;14.30;99.90;;;;;;5052412;28;20196;-77
2021/10/11 08:10:19;;;;;;;12.63;6.25;;;14.30;99.90;;;;;;5052205;28;20163;-79
2021/10/11 08:12:45;;;;;;;18.90;9.45;;;14.50;99.90;;;;;;5052519;28;20164;-78
2021/10/11 08:15:11;;;;;;;10.52;5.35;;;14.60;99.90;;;;;;5053096;28;20227;-79
2021/10/11 08:17:37;;;;;;;11.90;3.58;;;14.80;99.90;;;;;;5052567;28;20183;-83
2021/10/11 08:20:05;;;;;;;7.82;3.50;;;14.80;99.90;;;;;;5052420;28;20240;-78
2021/10/11 08:22:31;;;;;;;7.57;4.20;;;14.90;99.90;;;;;;5051889;28;20227;-78
2021/10/11 08:24:56;;;;;;;9.93;3.42;;;15.00;99.90;;;;;;5052399;28;20231;-80
2021/10/11 08:27:22;;;;;;;9.60;3.50;;;15.10;99.90;;;;;;5052180;28;20660;-81
2021/10/11 08:29:52;;;;;;;8.38;3.95;;;15.20;99.90;;;;;;5050930;28;20300;-77
2021/10/11 08:32:26;;;;;;;16.02;3.80;;;15.40;99.90;;;;;;5052181;28;20170;-77
2021/10/11 08:34:53;;;;;;;9.25;2.85;;;15.10;99.90;;;;;;5052717;28;20159;-77
2021/10/11 08:37:21;;;;;;;7.75;3.20;;;15.20;99.90;;;;;;5053139;28;20187;-78
2021/10/11 08:39:46;;;;;;;16.20;3.42;;;15.30;99.90;;;;;;5052597;28;20163;-78
2021/10/11 08:42:14;;;;;;;13.48;3.72;;;15.50;99.90;;;;;;5052599;28;20167;-79
2021/10/11 08:44:40;;;;;;;10.48;2.92;;;15.60;99.90;;;;;;5052102;28;20217;-77
2021/10/11 08:47:05;;;;;;;12.90;3.45;;;15.70;99.90;;;;;;5051701;28;20663;-78
2021/10/11 08:49:31;;;;;;;12.73;4.45;;;15.70;99.90;;;;;;5052152;28;20217;-81
2021/10/11 08:51:57;;;;;;;12.23;3.40;;;15.60;99.90;;;;;;5050522;28;20626;-80
2021/10/11 08:54:22;;;;;;;6.82;3.42;;;15.70;99.90;;;;;;5050617;28;20163;-80
2021/10/11 08:56:48;;;;;;;7.75;3.08;;;15.70;99.90;;;;;;5050640;28;20532;-80
2021/10/11 08:59:24;;;;;;;5.38;2.58;;;15.80;99.90;;;;;;5053014;28;20179;-81
2021/10/11 09:02:03;;;;;;;13.25;3.97;;;15.90;99.90;;;;;;5054369;28;20159;-79
2021/10/11 09:04:29;;;;;;;21.85;3.88;;;16.10;99.90;;;;;;5055529;28;20248;-81
2021/10/11 09:07:06;;;;;;;8.30;3.95;;;16.10;99.90;;;;;;5055782;28;20194;-81
2021/10/11 09:09:48;;;;;;;7.15;3.83;;;15.80;99.90;;;;;;5055460;28;20171;-80
2021/10/11 09:12:28;;;;;;;9.50;3.00;;;15.80;99.90;;;;;;5054246;28;20498;-81
2021/10/11 09:15:08;;;;;;;10.13;3.33;;;16.00;99.90;;;;;;5055404;28;20167;-81
2021/10/11 09:17:38;;;;;;;8.57;3.70;;;16.10;99.90;;;;;;5055477;28;20199;-80
2021/10/11 09:20:09;;;;;;;7.70;2.40;;;16.30;99.90;;;;;;5055882;28;20164;-80
2021/10/11 09:22:37;;;;;;;10.60;3.40;;;16.50;99.90;;;;;;5054708;28;20183;-82
2021/10/11 09:25:05;;;;;;;7.05;2.83;;;16.60;99.90;;;;;;5054203;28;20218;-81
2021/10/11 09:27:44;;;;;;;14.30;3.88;;;16.70;99.90;;;;;;5054128;28;20193;-81
2021/10/11 09:30:11;;;;;;;6.60;2.85;;;16.50;99.90;;;;;;5055075;28;20218;-80
2021/10/11 09:32:37;;;;;;;7.80;3.65;;;16.50;99.90;;;;;;5053755;28;20175;-81
2021/10/11 09:35:20;;;;;;;6.75;3.67;;;16.60;99.90;;;;;;5054104;28;20167;-80
2021/10/11 09:37:51;;;;;;;7.53;3.13;;;16.60;99.90;;;;;;5054856;28;20199;-81
2021/10/11 09:40:18;;;;;;;7.18;2.83;;;16.60;99.90;;;;;;5055024;28;20228;-78
2021/10/11 09:42:44;;;;;;;12.65;3.10;;;16.70;99.90;;;;;;5055019;28;20213;-79
2021/10/11 09:45:10;;;;;;;10.27;3.10;;;16.80;99.90;;;;;;5054884;28;20214;-79
2021/10/11 09:47:40;;;;;;;12.18;3.15;;;16.70;99.90;;;;;;5055004;28;20186;-83
2021/10/11 09:50:08;;;;;;;12.18;4.88;;;16.80;99.90;;;;;;5054427;28;20210;-77
2021/10/11 09:52:38;;;;;;;5.55;3.38;;;17.20;99.90;;;;;;5054839;28;20737;-77
2021/10/11 09:55:06;;;;;;;9.18;4.05;;;17.20;99.90;;;;;;5054812;28;20167;-78
2021/10/11 09:57:32;;;;;;;7.05;4.75;;;17.20;99.90;;;;;;5054937;28;20209;-77
2021/10/11 10:00:10;;;;;;;12.10;3.78;;;17.20;99.90;;;;;;5054495;28;20175;-77
2021/10/11 10:02:40;;;;;;;7.57;3.25;;;17.30;99.90;;;;;;5052867;28;20190;-77
2021/10/11 10:05:14;;;;;;;8.10;5.50;;;17.10;99.90;;;;;;5054690;28;20272;-76
2021/10/11 10:07:43;;;;;;;10.57;4.68;;;17.20;99.90;;;;;;5054497;28;20713;-77
2021/10/11 10:10:10;;;;;;;10.95;4.45;;;17.40;99.90;;;;;;5054668;28;20574;-78
2021/10/11 10:12:44;;;;;;;8.23;5.00;;;17.60;99.90;;;;;;5054364;28;20534;-77
2021/10/11 10:15:10;;;;;;;9.73;3.63;;;17.80;99.90;;;;;;5053924;28;20168;-77
2021/10/11 10:17:35;;;;;;;7.85;3.70;;;17.90;99.90;;;;;;5054228;28;20187;-79
2021/10/11 10:20:12;;;;;;;9.27;3.22;;;17.70;99.90;;;;;;5054193;28;20224;-79
2021/10/11 10:22:42;;;;;;;8.68;4.32;;;17.90;99.90;;;;;;5054531;28;20203;-78
2021/10/11 10:25:10;;;;;;;10.35;4.07;;;17.80;99.90;;;;;;5053917;28;20209;-81
2021/10/11 10:27:39;;;;;;;6.72;2.90;;;17.80;99.90;;;;;;5053810;28;20183;-78
2021/10/11 10:30:17;;;;;;;9.45;3.05;;;17.60;99.90;;;;;;5054187;28;20195;-78
2021/10/11 10:32:56;;;;;;;17.58;4.05;;;17.70;99.90;;;;;;5054098;28;20194;-77
2021/10/11 10:35:25;;;;;;;5.63;2.88;;;17.80;99.90;;;;;;5054587;28;20167;-78
2021/10/11 10:37:50;;;;;;;7.10;2.75;;;17.60;99.90;;;;;;5054222;28;20254;-78
2021/10/11 10:40:19;;;;;;;5.78;2.75;;;17.80;99.90;;;;;;5054602;28;20466;-78
2021/10/11 10:42:45;;;;;;;13.98;3.00;;;17.90;99.90;;;;;;5054289;28;20167;-77
2021/10/11 10:45:22;;;;;;;8.90;3.15;;;17.90;99.90;;;;;;5053861;28;20260;-81
2021/10/11 10:47:50;;;;;;;12.77;2.72;;;17.50;99.90;;;;;;5053421;28;20187;-78
2021/10/11 10:50:21;;;;;;;6.25;1.65;;;17.30;99.90;;;;;;5053395;28;20681;-79
2021/10/11 10:52:49;;;;;;;4.22;2.38;;;17.40;99.90;;;;;;5054130;28;20178;-79
2021/10/11 10:55:15;;;;;;;10.32;2.40;;;17.30;99.90;;;;;;5053921;28;20624;-78
2021/10/11 10:57:42;;;;;;;15.00;2.72;;;17.30;99.90;;;;;;5054350;28;20187;-79
2021/10/11 11:00:14;;;;;;;9.27;2.95;;;17.50;99.90;;;;;;5053884;28;20220;-78
2021/10/11 11:02:49;;;;;;;5.85;2.83;;;17.40;99.90;;;;;;5051487;28;20163;-87
2021/10/11 11:05:16;;;;;;;6.47;1.95;;;17.50;99.90;;;;;;5052748;28;20206;-77
2021/10/11 11:07:44;;;;;;;7.88;2.88;;;17.60;99.90;;;;;;5053910;28;20238;-81
2021/10/11 11:10:21;;;;;;;15.30;3.28;;;17.60;99.90;;;;;;5051747;28;20251;-78
2021/10/11 11:12:59;;;;;;;11.50;2.30;;;17.40;99.90;;;;;;5053975;28;20527;-78
2021/10/11 11:15:27;;;;;;;8.02;2.80;;;17.30;99.90;;;;;;5053026;28;20181;-79
2021/10/11 11:17:53;;;;;;;13.73;2.92;;;17.20;99.90;;;;;;5053460;28;20194;-82
2021/10/11 11:20:25;;;;;;;15.23;2.75;;;16.90;99.90;;;;;;5053882;28;20170;-79
2021/10/11 11:22:52;;;;;;;9.05;3.15;;;17.00;99.90;;;;;;5053107;28;20190;-78
2021/10/11 11:25:28;;;;;;;7.78;2.58;;;17.10;99.90;;;;;;5051778;28;20203;-78
2021/10/11 11:27:56;;;;;;;8.93;2.70;;;17.00;99.90;;;;;;5053535;28;20225;-79
2021/10/11 11:30:23;;;;;;;8.27;2.40;;;17.00;99.90;;;;;;5052977;28;20187;-81
2021/10/11 11:32:50;;;;;;;7.90;1.90;;;17.20;99.90;;;;;;5052689;28;20166;-78
2021/10/11 11:35:19;;;;;;;7.03;2.20;;;17.30;99.90;;;;;;5052577;28;20175;-78
2021/10/11 11:37:48;;;;;;;2.78;1.98;;;17.20;99.90;;;;;;5054198;28;20571;-77
2021/10/11 11:40:14;;;;;;;5.38;2.42;;;17.30;99.90;;;;;;5053148;28;20639;-79
2021/10/11 11:42:40;;;;;;;8.88;2.42;;;17.40;99.90;;;;;;5051658;28;20269;-80
2021/10/11 11:45:06;;;;;;;7.13;2.67;;;17.20;99.90;;;;;;5051495;28;20277;-80
2021/10/11 11:47:32;;;;;;;9.10;3.00;;;17.30;99.90;;;;;;5051486;28;20195;-79
2021/10/11 11:49:58;;;;;;;9.98;2.88;;;17.10;99.90;;;;;;5052830;28;20199;-78
2021/10/11 11:52:32;;;;;;;9.10;2.83;;;17.20;99.90;;;;;;5052743;28;20631;-82
2021/10/11 11:54:58;;;;;;;14.27;2.80;;;17.20;99.90;;;;;;5050929;28;20266;-81
2021/10/11 11:57:24;;;;;;;7.72;2.70;;;17.10;99.90;;;;;;5051601;28;20230;-85
2021/10/11 11:59:50;;;;;;;12.35;2.83;;;17.10;99.90;;;;;;5052644;28;20167;-86
2021/10/11 12:02:17;;;;;;;4.95;1.90;;;17.30;99.90;;;;;;5051609;28;20194;-89
2021/10/11 12:04:45;;;;;;;6.18;2.17;;;17.20;99.90;;;;;;5053064;28;20168;-82
2021/10/11 12:07:12;;;;;;;15.13;2.67;;;17.10;99.90;;;;;;5052993;28;20694;-79
2021/10/11 12:09:40;;;;;;;4.53;2.08;;;17.10;99.90;;;;;;5053103;28;20167;-77
2021/10/11 12:12:07;;;;;;;6.45;2.30;;;17.40;99.90;;;;;;5053948;28;20171;-77
2021/10/11 12:14:33;;;;;;;7.80;1.80;;;17.50;99.90;;;;;;5051879;28;20226;-77
2021/10/11 12:17:08;;;;;;;6.10;2.10;;;17.50;99.90;;;;;;5051833;28;20547;-77
2021/10/11 12:19:38;;;;;;;8.82;2.22;;;17.60;99.90;;;;;;5051997;28;20245;-79
2021/10/11 12:22:05;;;;;;;4.00;1.30;;;17.80;99.90;;;;;;5051889;28;20167;-79
2021/10/11 12:24:32;;;;;;;9.05;1.73;;;17.70;99.90;;;;;;5052201;28;20262;-79
2021/10/11 12:27:01;;;;;;;9.80;2.03;;;17.50;99.90;;;;;;5051959;28;20191;-79
2021/10/11 12:29:29;;;;;;;1.80;1.13;;;17.50;99.90;;;;;;5051833;28;20209;-79
2021/10/11 12:32:07;;;;;;;5.80;1.50;;;17.40;99.90;;;;;;5051609;28;20224;-79
2021/10/11 12:34:35;;;;;;;5.72;2.08;;;17.60;99.90;;;;;;5051472;28;20155;-78
2021/10/11 12:37:03;;;;;;;7.50;1.65;;;17.60;99.90;;;;;;5052033;28;20183;-78
2021/10/11 12:39:34;;;;;;;9.00;1.55;;;17.50;99.90;;;;;;5052285;28;20159;-78
2021/10/11 12:42:01;;;;;;;4.20;1.27;;;17.40;99.90;;;;;;5052075;28;20696;-78